createdAt,value
2024-01-05T00:00:22.101Z,118.74
2024-01-05T00:01:22.136Z,117.69
2024-01-05T00:02:22.195Z,115.25
2024-01-05T00:03:22.260Z,114.87
2024-01-05T00:04:22.332Z,113.92
2024-01-05T00:05:22.422Z,111.64
2024-01-05T00:06:22.672Z,110.99
2024-01-05T00:07:22.533Z,110.26
2024-01-05T00:08:22.604Z,108.83
2024-01-05T00:09:22.691Z,107.56
2024-01-05T00:10:22.741Z,107.32
2024-01-05T00:11:22.821Z,108.03
2024-01-05T00:12:22.890Z,107.37
2024-01-05T00:13:22.941Z,106.66
2024-01-05T00:14:22.988Z,105.47
2024-01-05T00:15:23.071Z,104.69
2024-01-05T00:16:23.096Z,105.12
2024-01-05T00:17:23.139Z,105.17
2024-01-05T00:18:23.353Z,104.15
2024-01-05T00:19:23.421Z,104.15
2024-01-05T00:20:23.434Z,103.59
2024-01-05T00:21:23.450Z,102.96
2024-01-05T00:22:23.479Z,104.41
2024-01-05T00:23:23.525Z,103.54
2024-01-05T00:24:23.671Z,100.47
2024-01-05T00:25:23.649Z,98.40
2024-01-05T00:26:23.758Z,97.83
2024-01-05T00:27:23.811Z,97.77
2024-01-05T00:28:23.839Z,98.70
2024-01-05T00:29:23.892Z,98.06
2024-01-05T00:30:24.175Z,98.52
2024-01-05T00:31:24.089Z,99.21
2024-01-05T00:32:24.111Z,99.56
2024-01-05T00:33:24.359Z,98.83
2024-01-05T00:34:24.409Z,98.89
2024-01-05T00:35:24.330Z,98.99
2024-01-05T00:36:24.424Z,98.95
2024-01-05T00:37:24.440Z,98.45
2024-01-05T00:38:24.496Z,98.79
2024-01-05T00:39:24.602Z,99.21
2024-01-05T00:40:24.580Z,99.28
2024-01-05T00:41:24.660Z,99.53
2024-01-05T00:42:24.790Z,100.22
2024-01-05T00:43:24.788Z,101.06
2024-01-05T00:44:24.856Z,101.94
2024-01-05T00:45:24.954Z,101.41
2024-01-05T00:46:24.978Z,101.71
2024-01-05T00:47:25.058Z,102.71
2024-01-05T00:48:25.231Z,103.76
2024-01-05T00:49:25.231Z,103.37
2024-01-05T00:50:25.224Z,104.37
2024-01-05T00:51:25.311Z,105.23
2024-01-05T00:52:25.379Z,105.19
2024-01-05T00:53:25.392Z,104.81
2024-01-05T00:54:25.515Z,105.04
2024-01-05T00:55:25.586Z,104.90
2024-01-05T00:56:25.575Z,105.08
2024-01-05T00:57:25.645Z,105.52
2024-01-05T00:58:25.624Z,104.01
2024-01-05T00:59:25.669Z,103.38
2024-01-05T01:00:25.949Z,102.14
2024-01-05T01:01:25.748Z,101.35
2024-01-05T01:02:25.811Z,100.42
2024-01-05T01:03:26.022Z,99.61
2024-01-05T01:04:26.054Z,98.98
2024-01-05T01:05:26.041Z,99.07
2024-01-05T01:06:26.138Z,98.17
2024-01-05T01:07:26.067Z,97.77
2024-01-05T01:08:26.142Z,97.48
2024-01-05T01:09:26.259Z,96.91
2024-01-05T01:10:26.217Z,98.39
2024-01-05T01:11:28.249Z,99.54
2024-01-05T01:12:26.326Z,101.71
2024-01-05T01:13:26.323Z,106.14
2024-01-05T01:14:26.358Z,107.99
2024-01-05T01:15:26.376Z,109.11
2024-01-05T01:16:26.368Z,109.77
2024-01-05T01:17:26.441Z,108.56
2024-01-05T01:18:26.505Z,108.45
2024-01-05T01:19:26.564Z,109.07
2024-01-05T01:20:26.409Z,109.54
2024-01-05T01:21:26.454Z,110.28
2024-01-05T01:22:26.439Z,111.76
2024-01-05T01:23:26.476Z,112.09
2024-01-05T01:24:26.543Z,111.67
2024-01-05T01:25:26.518Z,110.77
2024-01-05T01:26:26.556Z,112.30
2024-01-05T01:27:26.688Z,112.47
2024-01-05T01:28:26.647Z,112.11
2024-01-05T01:29:26.665Z,112.06
2024-01-05T01:30:26.904Z,110.49
2024-01-05T01:31:26.936Z,106.38
2024-01-05T01:32:26.888Z,102.64
2024-01-05T01:33:26.982Z,102.48
2024-01-05T01:34:27.024Z,100.29
2024-01-05T01:35:27.016Z,97.79
2024-01-05T01:36:27.138Z,96.19
2024-01-05T01:37:27.141Z,93.49
2024-01-05T01:38:27.186Z,91.10
2024-01-05T01:39:27.331Z,90.92
2024-01-05T01:40:27.369Z,89.86
2024-01-05T01:41:27.356Z,87.54
2024-01-05T01:42:27.558Z,85.93
2024-01-05T01:43:27.509Z,84.29
2024-01-05T01:44:27.585Z,80.81
2024-01-05T01:45:27.656Z,78.62
2024-01-05T01:46:27.684Z,75.16
2024-01-05T01:47:27.819Z,73.19
2024-01-05T01:48:27.993Z,72.64
2024-01-05T01:49:28.042Z,72.99
2024-01-05T01:50:28.068Z,72.91
2024-01-05T01:51:28.200Z,72.12
2024-01-05T01:52:28.238Z,72.96
2024-01-05T01:53:28.371Z,73.44
2024-01-05T01:54:29.214Z,73.01
2024-01-05T01:55:28.502Z,72.55
2024-01-05T01:56:28.548Z,72.98
2024-01-05T01:57:28.612Z,72.61
2024-01-05T01:58:28.631Z,73.10
2024-01-05T01:59:28.674Z,73.28
2024-01-05T02:00:28.769Z,74.15
2024-01-05T02:01:28.860Z,75.21
2024-01-05T02:02:28.801Z,77.05
2024-01-05T02:03:28.834Z,76.39
2024-01-05T02:04:29.059Z,78.08
2024-01-05T02:05:28.986Z,77.81
2024-01-05T02:06:29.067Z,76.95
2024-01-05T02:07:29.066Z,75.75
2024-01-05T02:08:29.192Z,74.69
2024-01-05T02:09:29.383Z,73.47
2024-01-05T02:10:29.353Z,70.60
2024-01-05T02:11:29.419Z,69.67
2024-01-05T02:12:29.456Z,69.29
2024-01-05T02:13:29.563Z,69.47
2024-01-05T02:14:29.632Z,69.45
2024-01-05T02:15:29.850Z,69.49
2024-01-05T02:16:29.786Z,67.82
2024-01-05T02:17:29.908Z,68.47
2024-01-05T02:18:30.080Z,67.67
2024-01-05T02:19:30.164Z,67.91
2024-01-05T02:20:30.017Z,64.31
2024-01-05T02:21:30.123Z,67.61
2024-01-05T02:22:30.087Z,76.16
2024-01-05T02:23:30.097Z,81.22
2024-01-05T02:24:30.154Z,81.04
2024-01-05T02:25:30.197Z,80.87
2024-01-05T02:26:30.227Z,82.46
2024-01-05T02:27:30.293Z,82.89
2024-01-05T02:28:30.273Z,83.69
2024-01-05T02:29:30.323Z,79.12
2024-01-05T02:30:30.480Z,77.07
2024-01-05T02:31:30.490Z,73.99
2024-01-05T02:32:31.318Z,70.24
2024-01-05T02:33:30.592Z,67.23
2024-01-05T02:34:30.624Z,68.98
2024-01-05T02:35:30.612Z,70.93
2024-01-05T02:36:30.650Z,73.38
2024-01-05T02:37:30.734Z,76.56
2024-01-05T02:38:30.719Z,78.56
2024-01-05T02:39:30.874Z,79.13
2024-01-05T02:40:30.976Z,77.88
2024-01-05T02:41:30.922Z,76.96
2024-01-05T02:42:31.045Z,72.18
2024-01-05T02:43:31.040Z,66.35
2024-01-05T02:44:31.022Z,63.63
2024-01-05T02:45:31.168Z,62.43
2024-01-05T02:46:31.159Z,65.63
2024-01-05T02:47:31.277Z,67.89
2024-01-05T02:48:31.410Z,68.96
2024-01-05T02:49:31.411Z,69.05
2024-01-05T02:50:31.377Z,68.10
2024-01-05T02:51:31.494Z,64.46
2024-01-05T02:52:31.435Z,65.59
2024-01-05T02:53:31.485Z,67.92
2024-01-05T02:54:31.606Z,70.44
2024-01-05T02:55:31.592Z,70.20
2024-01-05T02:56:31.669Z,67.45
2024-01-05T02:57:31.728Z,59.80
2024-01-05T02:58:31.694Z,56.47
2024-01-05T02:59:31.748Z,50.84
2024-01-05T03:00:31.959Z,50.71
2024-01-05T03:01:31.849Z,52.74
2024-01-05T03:02:31.881Z,54.48
2024-01-05T03:03:32.034Z,57.75
2024-01-05T03:04:32.116Z,63.97
2024-01-05T03:05:32.102Z,71.67
2024-01-05T03:06:32.217Z,76.05
2024-01-05T03:07:32.239Z,79.85
2024-01-05T03:08:32.277Z,80.65
2024-01-05T03:09:32.341Z,79.84
2024-01-05T03:10:32.376Z,75.32
2024-01-05T03:11:32.395Z,71.07
2024-01-05T03:12:32.462Z,69.87
2024-01-05T03:13:32.476Z,71.12
2024-01-05T03:14:32.539Z,72.20
2024-01-05T03:15:32.639Z,71.23
2024-01-05T03:16:32.650Z,71.13
2024-01-05T03:17:32.772Z,68.03
2024-01-05T03:18:32.911Z,62.75
2024-01-05T03:19:32.906Z,56.34
2024-01-05T03:20:32.935Z,52.38
2024-01-05T03:21:33.066Z,49.36
2024-01-05T03:22:33.015Z,50.00
2024-01-05T03:23:33.088Z,49.75
2024-01-05T03:24:33.206Z,50.05
2024-01-05T03:25:33.222Z,50.23
2024-01-05T03:26:33.363Z,50.00
2024-01-05T03:27:33.371Z,49.75
2024-01-05T03:28:33.369Z,49.91
2024-01-05T03:29:33.381Z,49.96
2024-01-05T03:30:33.501Z,50.04
2024-01-05T03:31:33.568Z,49.82
2024-01-05T03:32:33.487Z,50.38
2024-01-05T03:33:33.565Z,50.24
2024-01-05T03:34:33.532Z,50.62
2024-01-05T03:35:33.547Z,50.52
2024-01-05T03:36:33.650Z,50.13
2024-01-05T03:37:33.597Z,50.78
2024-01-05T03:38:33.627Z,53.42
2024-01-05T03:39:33.881Z,57.51
2024-01-05T03:40:33.729Z,65.18
2024-01-05T03:41:33.794Z,72.75
2024-01-05T03:42:33.965Z,83.09
2024-01-05T03:43:33.962Z,93.02
2024-01-05T03:44:34.013Z,98.56
2024-01-05T03:45:34.152Z,102.88
2024-01-05T03:46:34.200Z,107.86
2024-01-05T03:47:34.247Z,110.53
2024-01-05T03:48:34.471Z,111.85
2024-01-05T03:49:34.406Z,113.25
2024-01-05T03:50:34.420Z,112.97
2024-01-05T03:51:34.527Z,113.07
2024-01-05T03:52:34.573Z,113.12
2024-01-05T03:53:34.584Z,113.46
2024-01-05T03:54:34.710Z,113.85
2024-01-05T03:55:34.754Z,113.60
2024-01-05T03:56:34.820Z,113.83
2024-01-05T03:57:34.867Z,111.88
2024-01-05T03:58:34.908Z,110.76
2024-01-05T03:59:34.967Z,110.72
2024-01-05T04:00:35.155Z,112.12
2024-01-05T04:01:35.142Z,113.28
2024-01-05T04:02:35.279Z,115.87
2024-01-05T04:03:35.396Z,117.17
2024-01-05T04:04:35.586Z,118.21
2024-01-05T04:05:35.453Z,119.34
2024-01-05T04:06:35.578Z,120.26
2024-01-05T04:07:35.514Z,120.02
2024-01-05T04:08:35.596Z,119.46
2024-01-05T04:09:35.789Z,118.79
2024-01-05T04:10:35.724Z,117.87
2024-01-05T04:11:35.761Z,117.86
2024-01-05T04:12:35.881Z,119.06
2024-01-05T04:13:35.881Z,119.96
2024-01-05T04:14:35.921Z,121.33
2024-01-05T04:15:36.809Z,121.70
2024-01-05T04:16:36.151Z,121.83
2024-01-05T04:17:36.071Z,121.86
2024-01-05T04:18:36.191Z,122.07
2024-01-05T04:19:36.323Z,122.13
2024-01-05T04:20:36.343Z,121.15
2024-01-05T04:21:36.483Z,120.41
2024-01-05T04:22:36.493Z,119.74
2024-01-05T04:23:36.566Z,120.21
2024-01-05T04:24:36.746Z,118.58
2024-01-05T04:25:36.690Z,117.99
2024-01-05T04:26:36.739Z,116.53
2024-01-05T04:27:36.819Z,115.90
2024-01-05T04:28:36.866Z,115.93
2024-01-05T04:29:36.899Z,115.75
2024-01-05T04:30:37.110Z,113.91
2024-01-05T04:31:37.122Z,111.91
2024-01-05T04:32:37.190Z,110.27
2024-01-05T04:33:37.340Z,110.23
2024-01-05T04:34:37.366Z,108.32
2024-01-05T04:35:37.406Z,107.58
2024-01-05T04:36:37.541Z,106.51
2024-01-05T04:37:37.520Z,104.28
2024-01-05T04:38:37.593Z,101.61
2024-01-05T04:39:38.227Z,100.27
2024-01-05T04:40:37.760Z,98.82
2024-01-05T04:41:37.854Z,97.79
2024-01-05T04:42:37.974Z,96.72
2024-01-05T04:43:38.041Z,95.96
2024-01-05T04:44:38.115Z,94.83
2024-01-05T04:45:38.217Z,94.02
2024-01-05T04:46:38.369Z,92.85
2024-01-05T04:47:38.364Z,90.71
2024-01-05T04:48:38.683Z,90.12
2024-01-05T04:49:38.643Z,88.29
2024-01-05T04:50:38.594Z,88.88
2024-01-05T04:51:39.658Z,89.09
2024-01-05T04:52:38.685Z,86.28
2024-01-05T04:53:38.805Z,85.38
2024-01-05T04:54:38.919Z,85.34
2024-01-05T04:55:39.030Z,84.53
2024-01-05T04:56:39.068Z,84.04
2024-01-05T04:57:39.204Z,84.07
2024-01-05T04:58:39.314Z,84.90
2024-01-05T04:59:39.342Z,86.36
2024-01-05T05:00:39.624Z,86.40
2024-01-05T05:01:39.479Z,87.78
2024-01-05T05:02:39.564Z,89.51
2024-01-05T05:03:39.645Z,90.28
2024-01-05T05:04:39.724Z,90.93
2024-01-05T05:05:39.870Z,91.59
2024-01-05T05:06:40.232Z,92.71
2024-01-05T05:07:39.846Z,93.92
2024-01-05T05:08:39.906Z,94.97
2024-01-05T05:09:39.997Z,96.08
2024-01-05T05:10:40.060Z,96.96
2024-01-05T05:11:40.115Z,98.18
2024-01-05T05:12:40.257Z,96.91
2024-01-05T05:13:40.264Z,96.86
2024-01-05T05:14:40.383Z,97.04
2024-01-05T05:15:40.494Z,96.29
2024-01-05T05:16:48.408Z,50.00
2024-01-05T05:17:49.886Z,50.00
2024-01-05T05:18:48.526Z,50.00
2024-01-05T05:19:48.626Z,50.00
2024-01-05T05:20:48.319Z,50.00
2024-01-05T05:21:48.361Z,50.00
2024-01-05T05:22:48.380Z,50.00
2024-01-05T05:23:48.422Z,50.02
2024-01-05T05:24:48.432Z,52.44
2024-01-05T05:25:48.428Z,54.16
2024-01-05T05:26:48.436Z,57.16
2024-01-05T05:27:48.447Z,55.55
2024-01-05T05:28:48.428Z,56.40
2024-01-05T05:29:48.402Z,51.25
2024-01-05T05:30:48.516Z,52.61
2024-01-05T05:31:48.438Z,53.98
2024-01-05T05:32:48.465Z,58.26
2024-01-05T05:33:48.484Z,63.34
2024-01-05T05:34:48.440Z,66.87
2024-01-05T05:35:48.297Z,66.08
2024-01-05T05:36:48.306Z,66.54
2024-01-05T05:37:48.332Z,67.91
2024-01-05T05:38:48.295Z,67.47
2024-01-05T05:39:48.312Z,71.29
2024-01-05T05:40:48.288Z,72.10
2024-01-05T05:41:48.243Z,79.88
2024-01-05T05:42:48.191Z,81.50
2024-01-05T05:43:48.234Z,85.94
2024-01-05T05:44:48.202Z,91.71
2024-01-05T05:45:48.223Z,90.71
2024-01-05T05:46:48.241Z,89.77
2024-01-05T05:47:48.294Z,88.32
2024-01-05T05:48:48.520Z,88.95
2024-01-05T05:49:48.387Z,86.98
2024-01-05T05:50:48.313Z,89.14
2024-01-05T05:51:48.513Z,91.13
2024-01-05T05:52:48.313Z,90.65
2024-01-05T05:53:48.353Z,89.37
2024-01-05T05:54:48.344Z,88.81
2024-01-05T05:55:48.357Z,82.88
2024-01-05T05:56:48.371Z,81.19
2024-01-05T05:57:48.448Z,77.26
2024-01-05T05:58:48.403Z,72.74
2024-01-05T05:59:48.400Z,67.03
2024-01-05T06:00:48.457Z,55.44
2024-01-05T06:01:48.422Z,49.88
2024-01-05T06:02:48.394Z,50.00
2024-01-05T06:03:48.513Z,50.00
2024-01-05T06:04:48.512Z,50.06
2024-01-05T06:05:48.507Z,50.00
2024-01-05T06:06:48.571Z,50.00
2024-01-05T06:07:48.523Z,49.67
2024-01-05T06:08:48.516Z,50.44
2024-01-05T06:09:48.515Z,50.69
2024-01-05T06:10:48.580Z,51.19
2024-01-05T06:11:48.580Z,53.51
2024-01-05T06:12:48.583Z,52.94
2024-01-05T06:13:48.566Z,53.31
2024-01-05T06:14:48.634Z,59.09
2024-01-05T06:15:48.653Z,63.00
2024-01-05T06:16:48.643Z,70.39
2024-01-05T06:17:48.671Z,76.53
2024-01-05T06:18:48.824Z,82.48
2024-01-05T06:19:48.931Z,84.20
2024-01-05T06:20:48.761Z,83.49
2024-01-05T06:21:49.237Z,80.95
2024-01-05T06:22:48.775Z,75.03
2024-01-05T06:23:48.717Z,74.76
2024-01-05T06:24:48.695Z,73.95
2024-01-05T06:25:48.712Z,82.07
2024-01-05T06:26:48.744Z,91.26
2024-01-05T06:27:48.852Z,101.56
2024-01-05T06:28:48.733Z,114.88
2024-01-05T06:29:48.734Z,126.88
2024-01-05T06:30:48.791Z,130.26
2024-01-05T06:31:48.801Z,136.29
2024-01-05T06:32:48.717Z,137.36
2024-01-05T06:33:48.885Z,136.91
2024-01-05T06:34:48.844Z,130.92
2024-01-05T06:35:48.728Z,128.30
2024-01-05T06:36:48.706Z,124.29
2024-01-05T06:37:48.748Z,120.40
2024-01-05T06:38:48.791Z,114.05
2024-01-05T06:39:48.767Z,112.47
2024-01-05T06:40:48.785Z,111.81
2024-01-05T06:41:48.802Z,111.34
2024-01-05T06:42:48.909Z,112.02
2024-01-05T06:43:48.878Z,113.82
2024-01-05T06:44:48.910Z,109.94
2024-01-05T06:45:48.924Z,111.16
2024-01-05T06:46:48.892Z,108.99
2024-01-05T06:47:49.034Z,107.69
2024-01-05T06:48:49.078Z,110.93
2024-01-05T06:49:49.163Z,113.36
2024-01-05T06:50:49.016Z,117.20
2024-01-05T06:51:49.032Z,119.92
2024-01-05T06:52:48.934Z,119.69
2024-01-05T06:53:48.969Z,120.76
2024-01-05T06:54:48.995Z,124.32
2024-01-05T06:55:49.005Z,122.68
2024-01-05T06:56:49.030Z,124.23
2024-01-05T06:57:49.015Z,127.17
2024-01-05T06:58:49.047Z,128.81
2024-01-05T06:59:49.056Z,128.34
2024-01-05T07:00:49.283Z,129.61
2024-01-05T07:01:49.118Z,128.45
2024-01-05T07:02:49.164Z,125.52
2024-01-05T07:03:49.246Z,123.76
2024-01-05T07:04:49.187Z,124.53
2024-01-05T07:05:49.219Z,124.79
2024-01-05T07:06:49.429Z,125.89
2024-01-05T07:07:49.215Z,129.42
2024-01-05T07:08:49.204Z,130.73
2024-01-05T07:09:49.210Z,131.86
2024-01-05T07:10:49.172Z,129.21
2024-01-05T07:11:49.190Z,132.91
2024-01-05T07:12:49.175Z,132.65
2024-01-05T07:13:49.175Z,134.48
2024-01-05T07:14:49.219Z,134.44
2024-01-05T07:15:49.175Z,132.11
2024-01-05T07:16:49.147Z,130.42
2024-01-05T07:17:49.236Z,126.12
2024-01-05T07:18:49.354Z,122.67
2024-01-05T07:19:49.149Z,119.46
2024-01-05T07:20:49.175Z,117.27
2024-01-05T07:21:49.165Z,116.34
2024-01-05T07:22:49.152Z,117.43
2024-01-05T07:23:49.155Z,113.12
2024-01-05T07:24:49.139Z,111.83
2024-01-05T07:25:49.162Z,110.63
2024-01-05T07:26:49.192Z,106.70
2024-01-05T07:27:49.182Z,108.28
2024-01-05T07:28:49.163Z,107.71
2024-01-05T07:29:49.173Z,107.86
2024-01-05T07:30:49.214Z,108.24
2024-01-05T07:31:49.165Z,109.16
2024-01-05T07:32:49.236Z,113.54
2024-01-05T07:33:49.205Z,116.23
2024-01-05T07:34:49.165Z,119.96
2024-01-05T07:35:49.162Z,126.12
2024-01-05T07:36:49.181Z,133.36
2024-01-05T07:37:49.159Z,137.14
2024-01-05T07:38:49.131Z,139.98
2024-01-05T07:39:49.086Z,144.52
2024-01-05T07:40:49.088Z,154.09
2024-01-05T07:41:49.114Z,157.82
2024-01-05T07:42:49.146Z,164.55
2024-01-05T07:43:49.180Z,168.48
2024-01-05T07:44:49.186Z,173.72
2024-01-05T07:45:51.189Z,175.39
2024-01-05T07:46:49.179Z,176.75
2024-01-05T07:47:49.242Z,183.02
2024-01-05T07:48:49.276Z,178.66
2024-01-05T07:49:49.310Z,178.27
2024-01-05T07:50:49.192Z,174.65
2024-01-05T07:51:49.847Z,170.62
2024-01-05T07:52:49.198Z,162.24
2024-01-05T07:53:49.203Z,147.54
2024-01-05T07:54:49.226Z,145.92
2024-01-05T07:55:49.230Z,138.26
2024-01-05T07:56:49.253Z,132.25
2024-01-05T07:57:49.478Z,127.47
2024-01-05T07:58:49.298Z,120.90
2024-01-05T07:59:49.277Z,117.84
2024-01-05T08:00:49.512Z,113.23
2024-01-05T08:01:49.345Z,110.03
2024-01-05T08:02:49.358Z,103.72
2024-01-05T08:03:49.579Z,100.99
2024-01-05T08:04:49.397Z,89.66
2024-01-05T08:05:49.466Z,77.22
2024-01-05T08:06:49.516Z,63.63
2024-01-05T08:07:49.454Z,50.00
2024-01-05T08:08:49.523Z,50.00
2024-01-05T08:09:49.546Z,49.23
2024-01-05T08:10:49.544Z,50.00
2024-01-05T08:11:49.573Z,50.02
2024-01-05T08:12:49.608Z,50.58
2024-01-05T08:13:49.571Z,52.19
2024-01-05T08:14:49.590Z,53.74
2024-01-05T08:15:49.631Z,61.42
2024-01-05T08:16:49.566Z,69.09
2024-01-05T08:17:49.538Z,72.47
2024-01-05T08:18:49.605Z,53.85
2024-01-05T08:19:49.549Z,52.99
2024-01-05T08:20:49.548Z,59.47
2024-01-05T08:21:50.017Z,65.16
2024-01-05T08:22:49.497Z,78.42
2024-01-05T08:23:49.464Z,89.22
2024-01-05T08:24:49.493Z,99.12
2024-01-05T08:25:49.486Z,108.45
2024-01-05T08:26:49.515Z,119.99
2024-01-05T08:27:49.512Z,126.98
2024-01-05T08:28:49.500Z,132.75
2024-01-05T08:29:49.510Z,126.96
2024-01-05T08:30:49.599Z,102.85
2024-01-05T08:31:49.904Z,77.56
2024-01-05T08:32:49.551Z,63.85
2024-01-05T08:33:49.578Z,50.69
2024-01-05T08:34:49.477Z,51.28
2024-01-05T08:35:49.424Z,58.58
2024-01-05T08:36:49.422Z,58.89
2024-01-05T08:37:49.453Z,52.46
2024-01-05T08:38:49.463Z,61.71
2024-01-05T08:39:49.438Z,78.38
2024-01-05T08:40:49.402Z,100.91
2024-01-05T08:41:49.421Z,116.18
2024-01-05T08:42:49.467Z,129.63
2024-01-05T08:43:49.472Z,134.49
2024-01-05T08:44:49.422Z,129.30
2024-01-05T08:45:49.471Z,133.90
2024-01-05T08:46:49.388Z,137.24
2024-01-05T08:47:49.454Z,146.05
2024-01-05T08:48:49.467Z,149.98
2024-01-05T08:49:49.433Z,158.29
2024-01-05T08:50:49.428Z,165.44
2024-01-05T08:51:49.769Z,157.08
2024-01-05T08:52:49.426Z,148.96
2024-01-05T08:53:49.433Z,144.07
2024-01-05T08:54:50.594Z,134.64
2024-01-05T08:55:49.465Z,123.52
2024-01-05T08:56:49.452Z,112.89
2024-01-05T08:57:49.489Z,108.28
2024-01-05T08:58:49.500Z,102.90
2024-01-05T08:59:49.548Z,103.26
2024-01-05T09:00:49.627Z,97.43
2024-01-05T09:01:49.643Z,95.34
2024-01-05T09:02:49.711Z,92.81
2024-01-05T09:03:49.771Z,96.24
2024-01-05T09:04:49.728Z,96.80
2024-01-05T09:05:49.750Z,101.70
2024-01-05T09:06:49.819Z,105.09
2024-01-05T09:07:49.808Z,104.76
2024-01-05T09:08:49.817Z,109.28
2024-01-05T09:09:49.844Z,112.44
2024-01-05T09:10:49.892Z,117.32
2024-01-05T09:11:49.893Z,119.54
2024-01-05T09:12:49.979Z,109.36
2024-01-05T09:13:49.860Z,103.09
2024-01-05T09:14:49.828Z,89.74
2024-01-05T09:15:49.881Z,83.71
2024-01-05T09:16:49.814Z,70.49
2024-01-05T09:17:49.860Z,50.98
2024-01-05T09:18:49.929Z,49.59
2024-01-05T09:19:49.846Z,65.67
2024-01-05T09:20:49.840Z,94.95
2024-01-05T09:21:49.830Z,112.15
2024-01-05T09:22:49.898Z,125.47
2024-01-05T09:23:49.843Z,125.90
2024-01-05T09:24:49.859Z,121.56
2024-01-05T09:25:49.877Z,117.83
2024-01-05T09:26:49.896Z,110.39
2024-01-05T09:27:49.884Z,109.62
2024-01-05T09:28:49.853Z,105.25
2024-01-05T09:29:49.810Z,103.74
2024-01-05T09:30:51.817Z,104.20
2024-01-05T09:31:49.842Z,104.31
2024-01-05T09:32:49.736Z,104.84
2024-01-05T09:33:49.740Z,108.71
2024-01-05T09:34:49.665Z,115.60
2024-01-05T09:35:49.582Z,129.02
2024-01-05T09:36:49.579Z,136.78
2024-01-05T09:37:49.482Z,142.22
2024-01-05T09:38:49.442Z,143.22
2024-01-05T09:39:49.530Z,148.97
2024-01-05T09:40:49.392Z,150.39
2024-01-05T09:41:49.350Z,155.68
2024-01-05T09:42:49.311Z,155.07
2024-01-05T09:43:49.243Z,159.50
2024-01-05T09:44:49.215Z,163.83
2024-01-05T09:45:49.219Z,166.59
2024-01-05T09:46:49.144Z,161.55
2024-01-05T09:47:49.164Z,158.44
2024-01-05T09:48:54.616Z,157.64
2024-01-05T09:49:50.137Z,158.03
2024-01-05T09:50:49.001Z,159.29
2024-01-05T09:51:48.930Z,162.98
2024-01-05T09:52:48.892Z,169.05
2024-01-05T09:53:48.870Z,174.80
2024-01-05T09:54:48.851Z,174.61
2024-01-05T09:55:48.794Z,176.03
2024-01-05T09:56:48.731Z,177.93
2024-01-05T09:57:48.713Z,178.07
2024-01-05T09:58:48.638Z,183.46
2024-01-05T09:59:48.590Z,185.91
2024-01-05T10:00:48.577Z,186.20
2024-01-05T10:01:48.502Z,185.03
2024-01-05T10:02:48.535Z,187.15
2024-01-05T10:03:48.550Z,187.34
2024-01-05T10:04:48.505Z,183.01
2024-01-05T10:05:48.479Z,177.61
2024-01-05T10:06:48.506Z,174.81
2024-01-05T10:07:48.470Z,168.93
2024-01-05T10:08:48.450Z,157.97
2024-01-05T10:09:48.433Z,154.08
2024-01-05T10:10:48.430Z,151.84
2024-01-05T10:11:48.437Z,153.09
2024-01-05T10:12:48.409Z,157.80
2024-01-05T10:13:48.389Z,158.62
2024-01-05T10:14:48.377Z,159.23
2024-01-05T10:15:48.377Z,163.16
2024-01-05T10:16:48.360Z,165.36
2024-01-05T10:17:48.444Z,166.50
2024-01-05T10:18:48.395Z,166.64
2024-01-05T10:19:48.427Z,171.93
2024-01-05T10:20:48.356Z,174.07
2024-01-05T10:21:48.435Z,173.00
2024-01-05T10:22:48.329Z,173.92
2024-01-05T10:23:48.294Z,170.20
2024-01-05T10:24:48.390Z,164.22
2024-01-05T10:25:48.346Z,153.94
2024-01-05T10:26:48.299Z,146.41
2024-01-05T10:27:48.278Z,140.62
2024-01-05T10:28:48.237Z,138.88
2024-01-05T10:29:48.230Z,139.88
2024-01-05T10:30:48.372Z,140.44
2024-01-05T10:31:48.210Z,143.48
2024-01-05T10:32:48.219Z,151.11
2024-01-05T10:33:48.237Z,157.42
2024-01-05T10:34:48.355Z,165.49
2024-01-05T10:35:48.219Z,169.78
2024-01-05T10:36:48.251Z,172.66
2024-01-05T10:37:48.251Z,174.83
2024-01-05T10:38:48.248Z,179.04
2024-01-05T10:39:48.369Z,177.92
2024-01-05T10:40:48.214Z,164.27
2024-01-05T10:41:48.540Z,153.63
2024-01-05T10:42:48.243Z,147.95
2024-01-05T10:43:48.188Z,139.22
2024-01-05T10:44:48.217Z,130.88
2024-01-05T10:45:48.288Z,126.07
2024-01-05T10:46:48.225Z,123.98
2024-01-05T10:47:48.410Z,123.29
2024-01-05T10:48:48.358Z,121.54
2024-01-05T10:49:48.351Z,121.63
2024-01-05T10:50:48.287Z,126.71
2024-01-05T10:51:48.282Z,121.28
2024-01-05T10:52:48.268Z,122.44
2024-01-05T10:53:48.222Z,120.91
2024-01-05T10:54:48.271Z,115.96
2024-01-05T10:55:48.289Z,98.60
2024-01-05T10:56:48.363Z,67.17
2024-01-05T10:57:48.363Z,44.60
2024-01-05T10:58:48.315Z,47.86
2024-01-05T10:59:48.290Z,50.00
2024-01-05T11:00:48.350Z,51.06
2024-01-05T11:01:48.281Z,50.16
2024-01-05T11:02:48.297Z,51.56
2024-01-05T11:03:48.358Z,50.61
2024-01-05T11:04:48.205Z,52.02
2024-01-05T11:05:48.333Z,65.34
2024-01-05T11:06:48.290Z,67.84
2024-01-05T11:07:48.188Z,65.84
2024-01-05T11:08:48.208Z,56.59
2024-01-05T11:09:48.229Z,57.57
2024-01-05T11:10:48.165Z,59.64
2024-01-05T11:11:48.138Z,62.23
2024-01-05T11:12:48.131Z,63.01
2024-01-05T11:13:48.145Z,68.42
2024-01-05T11:14:48.115Z,82.47
2024-01-05T11:15:48.133Z,97.61
2024-01-05T11:16:48.050Z,116.85
2024-01-05T11:17:48.052Z,141.66
2024-01-05T11:18:47.999Z,160.08
2024-01-05T11:19:47.953Z,182.09
2024-01-05T11:20:47.808Z,200.26
2024-01-05T11:21:47.841Z,199.05
2024-01-05T11:22:47.730Z,200.00
2024-01-05T11:23:47.724Z,198.97
2024-01-05T11:24:47.802Z,199.74
2024-01-05T11:25:47.659Z,197.65
2024-01-05T11:26:47.623Z,197.81
2024-01-05T11:27:47.822Z,185.92
2024-01-05T11:28:47.490Z,194.00
2024-01-05T11:29:47.476Z,197.00
2024-01-05T11:30:47.522Z,199.39
2024-01-05T11:31:47.452Z,199.00
2024-01-05T11:32:47.641Z,198.98
2024-01-05T11:33:47.504Z,199.80
2024-01-05T11:34:47.396Z,199.58
2024-01-05T11:35:47.318Z,191.57
2024-01-05T11:36:47.308Z,188.20
2024-01-05T11:37:47.231Z,187.39
2024-01-05T11:38:47.186Z,185.33
2024-01-05T11:39:47.379Z,177.23
2024-01-05T11:40:49.160Z,175.53
2024-01-05T11:41:47.079Z,178.14
2024-01-05T11:42:47.139Z,178.71
2024-01-05T11:43:46.986Z,182.47
2024-01-05T11:44:46.929Z,182.85
2024-01-05T11:45:46.976Z,180.69
2024-01-05T11:46:46.821Z,177.52
2024-01-05T11:47:47.002Z,175.85
2024-01-05T11:48:46.898Z,171.17
2024-01-05T11:49:46.762Z,168.79
2024-01-05T11:50:46.642Z,165.64
2024-01-05T11:51:46.650Z,154.56
2024-01-05T11:52:46.512Z,151.80
2024-01-05T11:53:46.463Z,137.69
2024-01-05T11:54:46.478Z,126.41
2024-01-05T11:55:46.362Z,119.34
2024-01-05T11:56:46.293Z,110.22
2024-01-05T11:57:46.283Z,105.21
2024-01-05T11:58:46.197Z,100.87
2024-01-05T11:59:47.891Z,100.57
2024-01-05T12:00:46.344Z,96.14
2024-01-05T12:01:46.121Z,95.69
2024-01-05T12:02:46.071Z,92.22
2024-01-05T12:03:46.222Z,89.21
2024-01-05T12:04:46.196Z,83.14
2024-01-05T12:05:49.917Z,77.59
2024-01-05T12:06:47.034Z,67.50
2024-01-05T12:07:45.933Z,56.17
2024-01-05T12:08:45.896Z,49.33
2024-01-05T12:09:45.887Z,50.24
2024-01-05T12:10:45.753Z,47.60
2024-01-05T12:11:45.696Z,51.98
2024-01-05T12:12:45.756Z,56.17
2024-01-05T12:13:45.579Z,58.62
2024-01-05T12:14:45.532Z,58.64
2024-01-05T12:15:52.880Z,59.94
2024-01-05T12:16:46.400Z,60.12
2024-01-05T12:17:45.408Z,61.31
2024-01-05T12:18:45.909Z,64.77
2024-01-05T12:19:45.411Z,70.18
2024-01-05T12:20:45.167Z,84.19
2024-01-05T12:21:45.168Z,96.03
2024-01-05T12:22:45.066Z,101.63
2024-01-05T12:23:47.147Z,108.93
2024-01-05T12:24:45.027Z,117.74
2024-01-05T12:25:44.884Z,119.60
2024-01-05T12:26:44.842Z,122.40
2024-01-05T12:27:44.771Z,122.31
2024-01-05T12:28:44.694Z,119.56
2024-01-05T12:29:44.675Z,116.50
2024-01-05T12:30:44.726Z,112.87
2024-01-05T12:31:44.644Z,114.38
2024-01-05T12:32:44.616Z,112.82
2024-01-05T12:33:44.687Z,119.11
2024-01-05T12:34:44.648Z,125.35
2024-01-05T12:35:44.535Z,133.99
2024-01-05T12:36:44.582Z,134.07
2024-01-05T12:37:44.495Z,128.96
2024-01-05T12:38:44.445Z,132.26
2024-01-05T12:39:44.475Z,130.99